sensor_id;sensor_type;location;lat;lon;timestamp;P1;durP1;ratioP1;P2;durP2;ratioP2
6475;SDS011;3271;51.910;5.840;2022-11-15T00:01:37;17.17;;;11.38;;
6475;SDS011;3271;51.910;5.840;2022-11-15T00:04:03;14.27;;;10.13;;
6475;SDS011;3271;51.910;5.840;2022-11-15T00:06:30;15.00;;;10.75;;
6475;SDS011;3271;51.910;5.840;2022-11-15T00:08:59;14.23;;;10.43;;
6475;SDS011;3271;51.910;5.840;2022-11-15T00:11:25;15.80;;;10.18;;
6475;SDS011;3271;51.910;5.840;2022-11-15T00:13:54;16.02;;;11.13;;
6475;SDS011;3271;51.910;5.840;2022-11-15T00:16:20;14.90;;;11.60;;
6475;SDS011;3271;51.910;5.840;2022-11-15T00:18:46;16.83;;;11.68;;
6475;SDS011;3271;51.910;5.840;2022-11-15T00:21:13;15.18;;;10.50;;
6475;SDS011;3271;51.910;5.840;2022-11-15T00:23:39;15.18;;;10.93;;
6475;SDS011;3271;51.910;5.840;2022-11-15T00:26:05;17.23;;;10.85;;
6475;SDS011;3271;51.910;5.840;2022-11-15T00:28:31;14.55;;;10.38;;
6475;SDS011;3271;51.910;5.840;2022-11-15T00:31:01;17.35;;;11.13;;
6475;SDS011;3271;51.910;5.840;2022-11-15T00:33:27;12.75;;;10.48;;
6475;SDS011;3271;51.910;5.840;2022-11-15T00:35:53;14.68;;;10.70;;
6475;SDS011;3271;51.910;5.840;2022-11-15T00:38:19;15.25;;;11.00;;
6475;SDS011;3271;51.910;5.840;2022-11-15T00:40:45;15.07;;;10.50;;
6475;SDS011;3271;51.910;5.840;2022-11-15T00:43:11;16.10;;;11.02;;
6475;SDS011;3271;51.910;5.840;2022-11-15T00:45:37;15.63;;;10.85;;
6475;SDS011;3271;51.910;5.840;2022-11-15T00:48:03;15.85;;;10.95;;
6475;SDS011;3271;51.910;5.840;2022-11-15T00:50:29;14.25;;;10.63;;
6475;SDS011;3271;51.910;5.840;2022-11-15T00:52:54;15.40;;;10.60;;
6475;SDS011;3271;51.910;5.840;2022-11-15T00:55:20;14.85;;;10.30;;
6475;SDS011;3271;51.910;5.840;2022-11-15T00:57:46;14.27;;;9.88;;
6475;SDS011;3271;51.910;5.840;2022-11-15T01:00:12;16.00;;;10.68;;
6475;SDS011;3271;51.910;5.840;2022-11-15T01:02:38;12.70;;;10.27;;
6475;SDS011;3271;51.910;5.840;2022-11-15T01:05:04;15.60;;;10.05;;
6475;SDS011;3271;51.910;5.840;2022-11-15T01:07:30;13.57;;;10.40;;
6475;SDS011;3271;51.910;5.840;2022-11-15T01:09:56;11.70;;;9.82;;
6475;SDS011;3271;51.910;5.840;2022-11-15T01:12:22;11.85;;;9.65;;
6475;SDS011;3271;51.910;5.840;2022-11-15T01:14:49;12.57;;;9.30;;
6475;SDS011;3271;51.910;5.840;2022-11-15T01:17:15;11.95;;;9.20;;
6475;SDS011;3271;51.910;5.840;2022-11-15T01:19:41;14.68;;;10.48;;
6475;SDS011;3271;51.910;5.840;2022-11-15T01:22:07;13.55;;;10.32;;
6475;SDS011;3271;51.910;5.840;2022-11-15T01:24:32;13.75;;;10.07;;
6475;SDS011;3271;51.910;5.840;2022-11-15T01:26:58;12.65;;;9.88;;
6475;SDS011;3271;51.910;5.840;2022-11-15T01:29:24;14.00;;;9.73;;
6475;SDS011;3271;51.910;5.840;2022-11-15T01:31:52;11.45;;;9.13;;
6475;SDS011;3271;51.910;5.840;2022-11-15T01:34:18;13.25;;;9.93;;
6475;SDS011;3271;51.910;5.840;2022-11-15T01:36:44;13.52;;;10.30;;
6475;SDS011;3271;51.910;5.840;2022-11-15T01:39:10;12.00;;;9.23;;
6475;SDS011;3271;51.910;5.840;2022-11-15T01:41:36;12.98;;;9.90;;
6475;SDS011;3271;51.910;5.840;2022-11-15T01:46:47;11.13;;;8.50;;
6475;SDS011;3271;51.910;5.840;2022-11-15T01:49:17;10.95;;;8.90;;
6475;SDS011;3271;51.910;5.840;2022-11-15T01:51:43;10.43;;;8.50;;
6475;SDS011;3271;51.910;5.840;2022-11-15T01:54:10;10.73;;;8.77;;
6475;SDS011;3271;51.910;5.840;2022-11-15T01:56:41;12.30;;;9.40;;
6475;SDS011;3271;51.910;5.840;2022-11-15T01:59:09;12.35;;;9.27;;
6475;SDS011;3271;51.910;5.840;2022-11-15T02:01:36;9.68;;;8.68;;
6475;SDS011;3271;51.910;5.840;2022-11-15T02:04:08;10.50;;;8.30;;
6475;SDS011;3271;51.910;5.840;2022-11-15T02:06:36;10.07;;;8.25;;
6475;SDS011;3271;51.910;5.840;2022-11-15T02:09:02;10.00;;;8.20;;
6475;SDS011;3271;51.910;5.840;2022-11-15T02:11:28;8.88;;;7.63;;
6475;SDS011;3271;51.910;5.840;2022-11-15T02:13:54;10.25;;;8.82;;
6475;SDS011;3271;51.910;5.840;2022-11-15T02:16:29;8.63;;;7.82;;
6475;SDS011;3271;51.910;5.840;2022-11-15T02:19:10;10.10;;;7.95;;
6475;SDS011;3271;51.910;5.840;2022-11-15T02:21:56;9.88;;;8.13;;
6475;SDS011;3271;51.910;5.840;2022-11-15T02:30:00;11.45;;;8.25;;
6475;SDS011;3271;51.910;5.840;2022-11-15T02:35:11;9.20;;;8.25;;
6475;SDS011;3271;51.910;5.840;2022-11-15T02:37:46;7.93;;;7.13;;
6475;SDS011;3271;51.910;5.840;2022-11-15T02:42:41;10.45;;;8.40;;
6475;SDS011;3271;51.910;5.840;2022-11-15T02:45:30;10.98;;;7.93;;
6475;SDS011;3271;51.910;5.840;2022-11-15T02:47:58;10.63;;;9.20;;
6475;SDS011;3271;51.910;5.840;2022-11-15T02:50:25;9.82;;;7.63;;
6475;SDS011;3271;51.910;5.840;2022-11-15T02:52:52;12.80;;;8.55;;
6475;SDS011;3271;51.910;5.840;2022-11-15T02:58:07;10.02;;;8.55;;
6475;SDS011;3271;51.910;5.840;2022-11-15T03:00:38;9.68;;;8.32;;
6475;SDS011;3271;51.910;5.840;2022-11-15T03:05:59;11.73;;;8.70;;
6475;SDS011;3271;51.910;5.840;2022-11-15T03:08:36;9.45;;;7.45;;
6475;SDS011;3271;51.910;5.840;2022-11-15T03:11:14;11.18;;;9.70;;
6475;SDS011;3271;51.910;5.840;2022-11-15T03:13:47;9.23;;;8.05;;
6475;SDS011;3271;51.910;5.840;2022-11-15T03:16:48;9.07;;;8.15;;
6475;SDS011;3271;51.910;5.840;2022-11-15T03:19:09;9.15;;;8.07;;
6475;SDS011;3271;51.910;5.840;2022-11-15T03:21:37;9.63;;;7.82;;
6475;SDS011;3271;51.910;5.840;2022-11-15T03:24:05;11.70;;;8.32;;
6475;SDS011;3271;51.910;5.840;2022-11-15T03:26:31;10.00;;;8.13;;
6475;SDS011;3271;51.910;5.840;2022-11-15T03:29:00;10.57;;;8.30;;
6475;SDS011;3271;51.910;5.840;2022-11-15T03:31:29;8.63;;;7.82;;
6475;SDS011;3271;51.910;5.840;2022-11-15T03:36:57;9.27;;;8.02;;
6475;SDS011;3271;51.910;5.840;2022-11-15T03:39:23;9.35;;;7.78;;
6475;SDS011;3271;51.910;5.840;2022-11-15T03:49:24;11.93;;;8.82;;
6475;SDS011;3271;51.910;5.840;2022-11-15T03:51:51;8.98;;;7.80;;
6475;SDS011;3271;51.910;5.840;2022-11-15T03:54:17;8.70;;;7.80;;
6475;SDS011;3271;51.910;5.840;2022-11-15T03:56:43;9.45;;;8.25;;
6475;SDS011;3271;51.910;5.840;2022-11-15T03:59:09;10.63;;;8.48;;
6475;SDS011;3271;51.910;5.840;2022-11-15T04:01:35;9.30;;;8.35;;
6475;SDS011;3271;51.910;5.840;2022-11-15T04:04:01;10.15;;;8.35;;
6475;SDS011;3271;51.910;5.840;2022-11-15T04:06:27;11.77;;;8.32;;
6475;SDS011;3271;51.910;5.840;2022-11-15T04:08:52;12.07;;;9.52;;
6475;SDS011;3271;51.910;5.840;2022-11-15T04:11:18;9.82;;;7.95;;
6475;SDS011;3271;51.910;5.840;2022-11-15T04:13:44;10.95;;;8.68;;
6475;SDS011;3271;51.910;5.840;2022-11-15T04:16:10;10.80;;;8.02;;
6475;SDS011;3271;51.910;5.840;2022-11-15T04:18:37;11.13;;;9.00;;
6475;SDS011;3271;51.910;5.840;2022-11-15T04:21:03;9.23;;;8.32;;
6475;SDS011;3271;51.910;5.840;2022-11-15T04:23:47;9.70;;;8.15;;
6475;SDS011;3271;51.910;5.840;2022-11-15T04:26:32;9.25;;;8.30;;
6475;SDS011;3271;51.910;5.840;2022-11-15T04:28:58;11.52;;;8.20;;
6475;SDS011;3271;51.910;5.840;2022-11-15T04:31:42;10.30;;;8.45;;
6475;SDS011;3271;51.910;5.840;2022-11-15T04:34:08;11.98;;;9.05;;
6475;SDS011;3271;51.910;5.840;2022-11-15T04:36:34;10.13;;;8.43;;
6475;SDS011;3271;51.910;5.840;2022-11-15T04:39:19;11.85;;;8.38;;
6475;SDS011;3271;51.910;5.840;2022-11-15T04:41:44;10.00;;;7.80;;
6475;SDS011;3271;51.910;5.840;2022-11-15T04:44:10;10.32;;;9.20;;
6475;SDS011;3271;51.910;5.840;2022-11-15T04:46:36;9.93;;;8.40;;
6475;SDS011;3271;51.910;5.840;2022-11-15T04:49:02;9.10;;;8.20;;
6475;SDS011;3271;51.910;5.840;2022-11-15T04:51:28;9.73;;;8.65;;
6475;SDS011;3271;51.910;5.840;2022-11-15T04:53:54;10.10;;;8.07;;
6475;SDS011;3271;51.910;5.840;2022-11-15T04:56:20;11.10;;;9.13;;
6475;SDS011;3271;51.910;5.840;2022-11-15T04:58:48;9.98;;;8.82;;
6475;SDS011;3271;51.910;5.840;2022-11-15T05:01:14;9.82;;;7.22;;
6475;SDS011;3271;51.910;5.840;2022-11-15T05:03:41;9.75;;;8.05;;
6475;SDS011;3271;51.910;5.840;2022-11-15T05:06:26;9.73;;;8.38;;
6475;SDS011;3271;51.910;5.840;2022-11-15T05:08:52;13.73;;;10.48;;
6475;SDS011;3271;51.910;5.840;2022-11-15T05:11:18;9.35;;;7.80;;
6475;SDS011;3271;51.910;5.840;2022-11-15T05:13:44;10.85;;;8.85;;
6475;SDS011;3271;51.910;5.840;2022-11-15T05:16:09;10.82;;;8.68;;
6475;SDS011;3271;51.910;5.840;2022-11-15T05:18:35;11.93;;;8.98;;
6475;SDS011;3271;51.910;5.840;2022-11-15T05:21:05;11.85;;;8.45;;
6475;SDS011;3271;51.910;5.840;2022-11-15T05:23:31;10.00;;;8.18;;
6475;SDS011;3271;51.910;5.840;2022-11-15T05:26:00;12.02;;;9.40;;
6475;SDS011;3271;51.910;5.840;2022-11-15T05:28:26;13.27;;;9.55;;
6475;SDS011;3271;51.910;5.840;2022-11-15T05:30:52;12.07;;;10.00;;
6475;SDS011;3271;51.910;5.840;2022-11-15T05:33:18;12.98;;;9.35;;
6475;SDS011;3271;51.910;5.840;2022-11-15T05:35:46;12.55;;;9.40;;
6475;SDS011;3271;51.910;5.840;2022-11-15T05:38:14;11.88;;;9.23;;
6475;SDS011;3271;51.910;5.840;2022-11-15T05:40:40;11.32;;;8.65;;
6475;SDS011;3271;51.910;5.840;2022-11-15T05:43:06;11.77;;;9.07;;
6475;SDS011;3271;51.910;5.840;2022-11-15T05:45:32;9.85;;;8.70;;
6475;SDS011;3271;51.910;5.840;2022-11-15T05:47:59;11.07;;;9.00;;
6475;SDS011;3271;51.910;5.840;2022-11-15T05:50:26;10.57;;;8.55;;
6475;SDS011;3271;51.910;5.840;2022-11-15T05:52:53;10.77;;;9.05;;
6475;SDS011;3271;51.910;5.840;2022-11-15T05:55:19;11.80;;;8.95;;
6475;SDS011;3271;51.910;5.840;2022-11-15T05:57:45;11.38;;;9.05;;
6475;SDS011;3271;51.910;5.840;2022-11-15T06:00:11;11.25;;;8.10;;
6475;SDS011;3271;51.910;5.840;2022-11-15T06:02:37;10.85;;;8.48;;
6475;SDS011;3271;51.910;5.840;2022-11-15T06:05:03;12.70;;;8.75;;
6475;SDS011;3271;51.910;5.840;2022-11-15T06:07:30;12.43;;;8.95;;
6475;SDS011;3271;51.910;5.840;2022-11-15T06:09:56;10.40;;;7.72;;
6475;SDS011;3271;51.910;5.840;2022-11-15T06:12:21;10.43;;;7.85;;
6475;SDS011;3271;51.910;5.840;2022-11-15T06:14:47;9.10;;;7.72;;
6475;SDS011;3271;51.910;5.840;2022-11-15T06:17:13;10.38;;;8.45;;
6475;SDS011;3271;51.910;5.840;2022-11-15T06:19:39;10.88;;;8.95;;
6475;SDS011;3271;51.910;5.840;2022-11-15T06:22:05;9.43;;;7.57;;
6475;SDS011;3271;51.910;5.840;2022-11-15T06:24:31;9.98;;;8.77;;
6475;SDS011;3271;51.910;5.840;2022-11-15T06:26:57;10.15;;;9.15;;
6475;SDS011;3271;51.910;5.840;2022-11-15T06:29:24;8.52;;;7.63;;
6475;SDS011;3271;51.910;5.840;2022-11-15T06:31:50;8.35;;;7.55;;
6475;SDS011;3271;51.910;5.840;2022-11-15T06:34:16;13.75;;;8.68;;
6475;SDS011;3271;51.910;5.840;2022-11-15T06:36:42;10.43;;;7.80;;
6475;SDS011;3271;51.910;5.840;2022-11-15T06:39:08;9.35;;;7.53;;
6475;SDS011;3271;51.910;5.840;2022-11-15T06:41:34;8.93;;;8.00;;
6475;SDS011;3271;51.910;5.840;2022-11-15T06:44:00;8.88;;;7.57;;
6475;SDS011;3271;51.910;5.840;2022-11-15T06:46:26;8.23;;;7.45;;
6475;SDS011;3271;51.910;5.840;2022-11-15T06:48:52;8.32;;;7.53;;
6475;SDS011;3271;51.910;5.840;2022-11-15T06:51:18;9.20;;;7.25;;
6475;SDS011;3271;51.910;5.840;2022-11-15T06:53:44;10.30;;;7.05;;
6475;SDS011;3271;51.910;5.840;2022-11-15T06:56:10;8.55;;;7.20;;
6475;SDS011;3271;51.910;5.840;2022-11-15T06:58:37;9.27;;;7.55;;
6475;SDS011;3271;51.910;5.840;2022-11-15T07:01:05;11.55;;;7.72;;
6475;SDS011;3271;51.910;5.840;2022-11-15T07:03:31;8.85;;;7.38;;
6475;SDS011;3271;51.910;5.840;2022-11-15T07:05:57;8.65;;;7.07;;
6475;SDS011;3271;51.910;5.840;2022-11-15T07:08:24;8.88;;;8.05;;
6475;SDS011;3271;51.910;5.840;2022-11-15T07:10:53;8.30;;;7.30;;
6475;SDS011;3271;51.910;5.840;2022-11-15T07:13:18;9.38;;;6.72;;
6475;SDS011;3271;51.910;5.840;2022-11-15T07:15:44;8.38;;;7.57;;
6475;SDS011;3271;51.910;5.840;2022-11-15T07:18:10;7.35;;;6.65;;
6475;SDS011;3271;51.910;5.840;2022-11-15T07:20:36;8.95;;;7.05;;
6475;SDS011;3271;51.910;5.840;2022-11-15T07:23:03;7.85;;;7.03;;
6475;SDS011;3271;51.910;5.840;2022-11-15T07:25:29;8.80;;;7.50;;
6475;SDS011;3271;51.910;5.840;2022-11-15T07:27:56;8.45;;;7.20;;
6475;SDS011;3271;51.910;5.840;2022-11-15T07:30:22;7.43;;;6.65;;
6475;SDS011;3271;51.910;5.840;2022-11-15T07:32:55;8.98;;;6.70;;
6475;SDS011;3271;51.910;5.840;2022-11-15T07:35:22;8.77;;;7.10;;
6475;SDS011;3271;51.910;5.840;2022-11-15T07:37:57;17.25;;;7.07;;
6475;SDS011;3271;51.910;5.840;2022-11-15T07:40:24;9.90;;;7.32;;
6475;SDS011;3271;51.910;5.840;2022-11-15T07:42:50;9.23;;;6.63;;
6475;SDS011;3271;51.910;5.840;2022-11-15T07:45:22;8.02;;;6.85;;
6475;SDS011;3271;51.910;5.840;2022-11-15T07:47:48;10.02;;;6.75;;
6475;SDS011;3271;51.910;5.840;2022-11-15T07:50:15;8.10;;;6.82;;
6475;SDS011;3271;51.910;5.840;2022-11-15T07:52:41;7.65;;;6.78;;
6475;SDS011;3271;51.910;5.840;2022-11-15T07:55:07;7.95;;;7.00;;
6475;SDS011;3271;51.910;5.840;2022-11-15T07:57:33;16.23;;;7.50;;
6475;SDS011;3271;51.910;5.840;2022-11-15T07:59:59;7.97;;;6.70;;
6475;SDS011;3271;51.910;5.840;2022-11-15T08:02:25;8.15;;;6.68;;
6475;SDS011;3271;51.910;5.840;2022-11-15T08:04:51;8.65;;;7.57;;
6475;SDS011;3271;51.910;5.840;2022-11-15T08:07:17;7.43;;;6.72;;
6475;SDS011;3271;51.910;5.840;2022-11-15T08:09:43;7.82;;;7.07;;
6475;SDS011;3271;51.910;5.840;2022-11-15T08:12:09;8.63;;;7.55;;
6475;SDS011;3271;51.910;5.840;2022-11-15T08:14:35;8.52;;;7.13;;
6475;SDS011;3271;51.910;5.840;2022-11-15T08:17:01;9.68;;;7.57;;
6475;SDS011;3271;51.910;5.840;2022-11-15T08:19:27;7.78;;;6.78;;
6475;SDS011;3271;51.910;5.840;2022-11-15T08:21:53;11.40;;;7.78;;
6475;SDS011;3271;51.910;5.840;2022-11-15T08:24:18;11.63;;;8.30;;
6475;SDS011;3271;51.910;5.840;2022-11-15T08:26:45;7.68;;;6.80;;
6475;SDS011;3271;51.910;5.840;2022-11-15T08:29:12;7.75;;;6.97;;
6475;SDS011;3271;51.910;5.840;2022-11-15T08:31:37;7.65;;;6.60;;
6475;SDS011;3271;51.910;5.840;2022-11-15T08:34:04;7.05;;;6.35;;
6475;SDS011;3271;51.910;5.840;2022-11-15T08:36:30;7.63;;;6.60;;
6475;SDS011;3271;51.910;5.840;2022-11-15T08:38:56;9.00;;;6.60;;
6475;SDS011;3271;51.910;5.840;2022-11-15T08:41:31;7.35;;;6.65;;
6475;SDS011;3271;51.910;5.840;2022-11-15T08:43:58;9.48;;;6.55;;
6475;SDS011;3271;51.910;5.840;2022-11-15T08:46:24;8.07;;;6.47;;
6475;SDS011;3271;51.910;5.840;2022-11-15T08:48:50;8.63;;;6.47;;
6475;SDS011;3271;51.910;5.840;2022-11-15T08:51:16;7.55;;;6.05;;
6475;SDS011;3271;51.910;5.840;2022-11-15T08:53:42;8.20;;;6.40;;
6475;SDS011;3271;51.910;5.840;2022-11-15T08:56:08;9.40;;;6.30;;
6475;SDS011;3271;51.910;5.840;2022-11-15T08:58:35;9.32;;;6.45;;
6475;SDS011;3271;51.910;5.840;2022-11-15T09:01:01;6.03;;;5.40;;
6475;SDS011;3271;51.910;5.840;2022-11-15T09:03:27;8.88;;;6.30;;
6475;SDS011;3271;51.910;5.840;2022-11-15T09:05:56;7.68;;;6.38;;
6475;SDS011;3271;51.910;5.840;2022-11-15T09:08:22;8.18;;;6.22;;
6475;SDS011;3271;51.910;5.840;2022-11-15T09:10:48;7.50;;;5.47;;
6475;SDS011;3271;51.910;5.840;2022-11-15T09:13:14;8.45;;;5.53;;
6475;SDS011;3271;51.910;5.840;2022-11-15T09:15:40;8.60;;;6.45;;
6475;SDS011;3271;51.910;5.840;2022-11-15T09:18:06;17.05;;;14.15;;
6475;SDS011;3271;51.910;5.840;2022-11-15T09:20:32;14.23;;;10.52;;
6475;SDS011;3271;51.910;5.840;2022-11-15T09:23:01;29.35;;;22.27;;
6475;SDS011;3271;51.910;5.840;2022-11-15T09:25:27;13.00;;;11.45;;
6475;SDS011;3271;51.910;5.840;2022-11-15T09:27:53;7.38;;;5.82;;
6475;SDS011;3271;51.910;5.840;2022-11-15T09:30:19;6.13;;;5.05;;
6475;SDS011;3271;51.910;5.840;2022-11-15T09:32:45;6.63;;;4.85;;
6475;SDS011;3271;51.910;5.840;2022-11-15T09:35:11;7.78;;;5.10;;
6475;SDS011;3271;51.910;5.840;2022-11-15T09:37:37;8.32;;;4.90;;
6475;SDS011;3271;51.910;5.840;2022-11-15T09:40:03;6.70;;;4.70;;
6475;SDS011;3271;51.910;5.840;2022-11-15T09:49:59;4.78;;;4.13;;
6475;SDS011;3271;51.910;5.840;2022-11-15T09:52:26;5.93;;;5.32;;
6475;SDS011;3271;51.910;5.840;2022-11-15T09:54:52;5.45;;;4.30;;
6475;SDS011;3271;51.910;5.840;2022-11-15T09:57:32;4.55;;;4.03;;
6475;SDS011;3271;51.910;5.840;2022-11-15T10:00:18;4.18;;;3.78;;
6475;SDS011;3271;51.910;5.840;2022-11-15T10:02:52;6.00;;;4.43;;
6475;SDS011;3271;51.910;5.840;2022-11-15T10:05:22;6.20;;;3.90;;
6475;SDS011;3271;51.910;5.840;2022-11-15T10:08:50;7.18;;;3.80;;
6475;SDS011;3271;51.910;5.840;2022-11-15T10:10:45;5.28;;;4.50;;
6475;SDS011;3271;51.910;5.840;2022-11-15T10:13:20;5.60;;;3.58;;
6475;SDS011;3271;51.910;5.840;2022-11-15T10:15:48;3.60;;;3.03;;
6475;SDS011;3271;51.910;5.840;2022-11-15T10:18:34;4.15;;;3.58;;
6475;SDS011;3271;51.910;5.840;2022-11-15T10:21:12;4.35;;;3.38;;
6475;SDS011;3271;51.910;5.840;2022-11-15T10:23:41;4.43;;;3.10;;
6475;SDS011;3271;51.910;5.840;2022-11-15T10:26:07;3.25;;;2.95;;
6475;SDS011;3271;51.910;5.840;2022-11-15T10:28:34;3.00;;;2.78;;
6475;SDS011;3271;51.910;5.840;2022-11-15T10:31:00;2.78;;;2.55;;
6475;SDS011;3271;51.910;5.840;2022-11-15T10:36:13;4.13;;;2.55;;
6475;SDS011;3271;51.910;5.840;2022-11-15T10:41:16;3.85;;;2.35;;
6475;SDS011;3271;51.910;5.840;2022-11-15T10:43:42;2.47;;;2.28;;
6475;SDS011;3271;51.910;5.840;2022-11-15T10:46:18;2.97;;;2.75;;
6475;SDS011;3271;51.910;5.840;2022-11-15T10:48:44;3.50;;;2.28;;
6475;SDS011;3271;51.910;5.840;2022-11-15T10:51:21;3.60;;;2.42;;
6475;SDS011;3271;51.910;5.840;2022-11-15T10:53:50;2.80;;;2.20;;
6475;SDS011;3271;51.910;5.840;2022-11-15T10:56:17;2.40;;;2.08;;
6475;SDS011;3271;51.910;5.840;2022-11-15T10:58:50;4.15;;;2.25;;
6475;SDS011;3271;51.910;5.840;2022-11-15T11:01:19;3.03;;;2.13;;
6475;SDS011;3271;51.910;5.840;2022-11-15T11:03:57;3.58;;;1.90;;
6475;SDS011;3271;51.910;5.840;2022-11-15T11:06:26;2.38;;;1.80;;
6475;SDS011;3271;51.910;5.840;2022-11-15T11:08:54;5.68;;;2.30;;
6475;SDS011;3271;51.910;5.840;2022-11-15T11:11:20;3.75;;;1.95;;
6475;SDS011;3271;51.910;5.840;2022-11-15T11:13:46;4.15;;;3.30;;
6475;SDS011;3271;51.910;5.840;2022-11-15T11:18:48;4.55;;;2.22;;
6475;SDS011;3271;51.910;5.840;2022-11-15T11:21:19;6.82;;;3.72;;
6475;SDS011;3271;51.910;5.840;2022-11-15T11:23:55;11.32;;;5.95;;
6475;SDS011;3271;51.910;5.840;2022-11-15T11:26:43;9.60;;;6.15;;
6475;SDS011;3271;51.910;5.840;2022-11-15T11:31:49;8.38;;;6.65;;
6475;SDS011;3271;51.910;5.840;2022-11-15T11:37:24;12.07;;;10.48;;
6475;SDS011;3271;51.910;5.840;2022-11-15T11:42:31;24.55;;;18.75;;
6475;SDS011;3271;51.910;5.840;2022-11-15T11:45:03;7.22;;;4.45;;
6475;SDS011;3271;51.910;5.840;2022-11-15T11:47:39;7.53;;;4.22;;
6475;SDS011;3271;51.910;5.840;2022-11-15T11:52:39;3.05;;;2.33;;
6475;SDS011;3271;51.910;5.840;2022-11-15T12:02:33;2.25;;;1.80;;
6475;SDS011;3271;51.910;5.840;2022-11-15T12:05:03;3.63;;;1.95;;
6475;SDS011;3271;51.910;5.840;2022-11-15T12:07:31;4.65;;;1.98;;
6475;SDS011;3271;51.910;5.840;2022-11-15T12:09:58;7.22;;;2.65;;
6475;SDS011;3271;51.910;5.840;2022-11-15T12:14:55;3.38;;;1.63;;
6475;SDS011;3271;51.910;5.840;2022-11-15T12:17:26;2.75;;;1.55;;
6475;SDS011;3271;51.910;5.840;2022-11-15T12:19:56;3.55;;;1.85;;
6475;SDS011;3271;51.910;5.840;2022-11-15T12:22:24;3.60;;;1.83;;
6475;SDS011;3271;51.910;5.840;2022-11-15T12:25:02;5.03;;;1.70;;
6475;SDS011;3271;51.910;5.840;2022-11-15T12:27:36;8.32;;;2.10;;
6475;SDS011;3271;51.910;5.840;2022-11-15T12:30:11;5.25;;;1.67;;
6475;SDS011;3271;51.910;5.840;2022-11-15T12:32:39;2.33;;;1.58;;
6475;SDS011;3271;51.910;5.840;2022-11-15T12:35:06;4.63;;;1.67;;
6475;SDS011;3271;51.910;5.840;2022-11-15T12:37:49;2.35;;;2.15;;
6475;SDS011;3271;51.910;5.840;2022-11-15T12:45:39;3.83;;;1.75;;
6475;SDS011;3271;51.910;5.840;2022-11-15T12:58:43;3.05;;;1.48;;
6475;SDS011;3271;51.910;5.840;2022-11-15T13:01:14;7.50;;;2.10;;
6475;SDS011;3271;51.910;5.840;2022-11-15T13:04:13;4.22;;;1.70;;
6475;SDS011;3271;51.910;5.840;2022-11-15T13:06:42;1.60;;;1.23;;
6475;SDS011;3271;51.910;5.840;2022-11-15T13:11:52;4.63;;;1.38;;
6475;SDS011;3271;51.910;5.840;2022-11-15T13:17:15;5.15;;;1.15;;
6475;SDS011;3271;51.910;5.840;2022-11-15T13:19:42;4.13;;;1.20;;
6475;SDS011;3271;51.910;5.840;2022-11-15T13:22:09;3.42;;;1.27;;
6475;SDS011;3271;51.910;5.840;2022-11-15T13:24:54;2.25;;;1.20;;
6475;SDS011;3271;51.910;5.840;2022-11-15T13:27:20;3.03;;;0.90;;
6475;SDS011;3271;51.910;5.840;2022-11-15T13:29:46;2.50;;;1.30;;
6475;SDS011;3271;51.910;5.840;2022-11-15T13:32:13;2.58;;;1.33;;
6475;SDS011;3271;51.910;5.840;2022-11-15T13:34:39;1.85;;;1.13;;
6475;SDS011;3271;51.910;5.840;2022-11-15T13:37:32;1.52;;;1.20;;
6475;SDS011;3271;51.910;5.840;2022-11-15T13:40:09;2.30;;;1.40;;
6475;SDS011;3271;51.910;5.840;2022-11-15T13:42:36;3.17;;;1.60;;
6475;SDS011;3271;51.910;5.840;2022-11-15T13:45:03;2.22;;;1.38;;
6475;SDS011;3271;51.910;5.840;2022-11-15T13:47:30;3.30;;;1.80;;
6475;SDS011;3271;51.910;5.840;2022-11-15T13:49:56;1.70;;;1.00;;
6475;SDS011;3271;51.910;5.840;2022-11-15T13:52:23;1.95;;;1.45;;
6475;SDS011;3271;51.910;5.840;2022-11-15T13:54:51;1.13;;;0.95;;
6475;SDS011;3271;51.910;5.840;2022-11-15T13:57:22;3.83;;;1.25;;
6475;SDS011;3271;51.910;5.840;2022-11-15T13:59:52;2.83;;;1.40;;
6475;SDS011;3271;51.910;5.840;2022-11-15T14:02:25;14.35;;;10.77;;
6475;SDS011;3271;51.910;5.840;2022-11-15T14:04:55;6.85;;;5.45;;
6475;SDS011;3271;51.910;5.840;2022-11-15T14:07:23;13.57;;;9.68;;
6475;SDS011;3271;51.910;5.840;2022-11-15T14:09:50;7.85;;;5.20;;
6475;SDS011;3271;51.910;5.840;2022-11-15T14:12:27;4.18;;;1.88;;
6475;SDS011;3271;51.910;5.840;2022-11-15T14:14:54;2.40;;;1.20;;
6475;SDS011;3271;51.910;5.840;2022-11-15T14:17:21;2.38;;;1.25;;
6475;SDS011;3271;51.910;5.840;2022-11-15T14:19:57;3.50;;;1.60;;
6475;SDS011;3271;51.910;5.840;2022-11-15T14:22:24;3.10;;;2.15;;
6475;SDS011;3271;51.910;5.840;2022-11-15T14:27:30;4.47;;;2.25;;
6475;SDS011;3271;51.910;5.840;2022-11-15T14:29:56;3.15;;;2.35;;
6475;SDS011;3271;51.910;5.840;2022-11-15T14:32:27;4.72;;;2.42;;
6475;SDS011;3271;51.910;5.840;2022-11-15T14:35:02;4.00;;;1.70;;
6475;SDS011;3271;51.910;5.840;2022-11-15T14:37:32;7.13;;;3.53;;
6475;SDS011;3271;51.910;5.840;2022-11-15T14:39:59;7.47;;;2.30;;
6475;SDS011;3271;51.910;5.840;2022-11-15T14:42:25;4.68;;;2.15;;
6475;SDS011;3271;51.910;5.840;2022-11-15T14:44:51;4.68;;;2.40;;
6475;SDS011;3271;51.910;5.840;2022-11-15T14:47:17;5.05;;;2.50;;
6475;SDS011;3271;51.910;5.840;2022-11-15T14:49:44;3.17;;;2.00;;
6475;SDS011;3271;51.910;5.840;2022-11-15T14:52:32;4.20;;;2.05;;
6475;SDS011;3271;51.910;5.840;2022-11-15T14:54:59;2.92;;;2.13;;
6475;SDS011;3271;51.910;5.840;2022-11-15T14:57:27;2.17;;;1.98;;
6475;SDS011;3271;51.910;5.840;2022-11-15T14:59:52;3.85;;;2.35;;
6475;SDS011;3271;51.910;5.840;2022-11-15T15:02:25;4.78;;;3.53;;
6475;SDS011;3271;51.910;5.840;2022-11-15T15:04:52;5.93;;;2.10;;
6475;SDS011;3271;51.910;5.840;2022-11-15T15:07:18;4.03;;;2.45;;
6475;SDS011;3271;51.910;5.840;2022-11-15T15:09:44;2.70;;;2.40;;
6475;SDS011;3271;51.910;5.840;2022-11-15T15:12:14;2.58;;;2.20;;
6475;SDS011;3271;51.910;5.840;2022-11-15T15:14:41;2.83;;;2.10;;
6475;SDS011;3271;51.910;5.840;2022-11-15T15:17:07;4.43;;;2.00;;
6475;SDS011;3271;51.910;5.840;2022-11-15T15:19:36;2.85;;;1.67;;
6475;SDS011;3271;51.910;5.840;2022-11-15T15:22:02;3.47;;;1.52;;
6475;SDS011;3271;51.910;5.840;2022-11-15T15:24:28;3.25;;;2.30;;
6475;SDS011;3271;51.910;5.840;2022-11-15T15:26:54;4.47;;;1.38;;
6475;SDS011;3271;51.910;5.840;2022-11-15T15:29:20;3.40;;;2.28;;
6475;SDS011;3271;51.910;5.840;2022-11-15T15:31:46;3.22;;;1.77;;
6475;SDS011;3271;51.910;5.840;2022-11-15T15:34:12;3.28;;;1.83;;
6475;SDS011;3271;51.910;5.840;2022-11-15T15:36:38;2.22;;;1.60;;
6475;SDS011;3271;51.910;5.840;2022-11-15T15:39:03;5.45;;;3.10;;
6475;SDS011;3271;51.910;5.840;2022-11-15T15:41:29;4.07;;;2.08;;
6475;SDS011;3271;51.910;5.840;2022-11-15T15:43:55;3.55;;;2.50;;
6475;SDS011;3271;51.910;5.840;2022-11-15T15:46:21;4.60;;;2.38;;
6475;SDS011;3271;51.910;5.840;2022-11-15T15:48:47;4.78;;;2.60;;
6475;SDS011;3271;51.910;5.840;2022-11-15T15:51:13;4.00;;;1.60;;
6475;SDS011;3271;51.910;5.840;2022-11-15T15:53:39;5.72;;;2.55;;
6475;SDS011;3271;51.910;5.840;2022-11-15T15:56:05;6.32;;;1.95;;
6475;SDS011;3271;51.910;5.840;2022-11-15T15:58:34;5.38;;;2.08;;
6475;SDS011;3271;51.910;5.840;2022-11-15T16:01:00;2.33;;;2.03;;
6475;SDS011;3271;51.910;5.840;2022-11-15T16:03:26;2.58;;;1.83;;
6475;SDS011;3271;51.910;5.840;2022-11-15T16:05:52;3.90;;;2.20;;
6475;SDS011;3271;51.910;5.840;2022-11-15T16:08:19;3.28;;;1.90;;
6475;SDS011;3271;51.910;5.840;2022-11-15T16:10:45;3.28;;;1.40;;
6475;SDS011;3271;51.910;5.840;2022-11-15T16:13:11;5.30;;;2.00;;
6475;SDS011;3271;51.910;5.840;2022-11-15T16:15:37;3.13;;;1.55;;
6475;SDS011;3271;51.910;5.840;2022-11-15T16:18:03;3.17;;;1.35;;
6475;SDS011;3271;51.910;5.840;2022-11-15T16:20:36;2.30;;;1.23;;
6475;SDS011;3271;51.910;5.840;2022-11-15T16:23:05;4.13;;;1.92;;
6475;SDS011;3271;51.910;5.840;2022-11-15T16:25:37;4.63;;;1.65;;
6475;SDS011;3271;51.910;5.840;2022-11-15T16:28:03;38.75;;;32.25;;
6475;SDS011;3271;51.910;5.840;2022-11-15T16:30:29;12.57;;;9.07;;
6475;SDS011;3271;51.910;5.840;2022-11-15T16:32:55;9.70;;;7.38;;
6475;SDS011;3271;51.910;5.840;2022-11-15T16:35:21;5.70;;;4.50;;
6475;SDS011;3271;51.910;5.840;2022-11-15T16:37:46;2.80;;;2.15;;
6475;SDS011;3271;51.910;5.840;2022-11-15T16:40:23;3.15;;;2.13;;
6475;SDS011;3271;51.910;5.840;2022-11-15T16:42:50;4.32;;;2.03;;
6475;SDS011;3271;51.910;5.840;2022-11-15T16:45:16;3.72;;;2.22;;
6475;SDS011;3271;51.910;5.840;2022-11-15T16:47:42;3.55;;;1.83;;